createdAt,value
2017-05-22T00:01:00.068Z,10.72
2017-05-22T00:03:29.034Z,11.06
2017-05-22T00:05:58.347Z,12.56
2017-05-22T00:08:27.298Z,10.24
2017-05-22T00:10:56.353Z,11.26
2017-05-22T00:13:25.776Z,11.32
2017-05-22T00:15:54.751Z,10.12
2017-05-22T00:18:23.734Z,11.46
2017-05-22T00:20:53.027Z,10.56
2017-05-22T00:23:21.997Z,12.70
2017-05-22T00:25:50.992Z,11.00
2017-05-22T00:28:20.350Z,10.84
2017-05-22T00:30:49.298Z,11.10
2017-05-22T00:33:18.247Z,11.68
2017-05-22T00:35:47.547Z,10.14
2017-05-22T00:38:16.521Z,11.56
2017-05-22T00:40:45.483Z,10.76
2017-05-22T00:43:14.834Z,10.42
2017-05-22T00:45:43.817Z,11.12
2017-05-22T00:48:12.819Z,11.48
2017-05-22T00:50:42.299Z,12.84
2017-05-22T00:53:11.267Z,11.64
2017-05-22T00:55:40.229Z,13.48
2017-05-22T00:58:09.586Z,14.58
2017-05-22T01:00:38.573Z,14.84
2017-05-22T01:03:07.537Z,13.60
2017-05-22T01:05:36.919Z,12.54
2017-05-22T01:08:05.883Z,11.38
2017-05-22T01:10:34.857Z,12.38
2017-05-22T01:13:04.249Z,12.12
2017-05-22T01:15:33.187Z,13.42
2017-05-22T01:18:02.290Z,10.46
2017-05-22T01:20:31.636Z,10.56
2017-05-22T01:23:00.586Z,11.44
2017-05-22T01:25:29.554Z,11.70
2017-05-22T01:27:58.922Z,10.44
2017-05-22T01:30:27.871Z,9.56
2017-05-22T01:32:56.835Z,10.52
2017-05-22T01:35:26.297Z,11.48
2017-05-22T01:37:55.277Z,11.32
2017-05-22T01:40:24.214Z,15.12
2017-05-22T01:42:53.584Z,10.90
2017-05-22T01:45:22.547Z,11.26
2017-05-22T01:47:51.535Z,17.16
2017-05-22T01:50:20.875Z,11.62
2017-05-22T01:52:49.848Z,13.94
2017-05-22T01:55:18.863Z,11.02
2017-05-22T01:57:47.639Z,12.36
2017-05-22T02:00:16.600Z,12.76
2017-05-22T02:02:45.562Z,16.84
2017-05-22T02:05:14.930Z,13.26
2017-05-22T02:07:44.077Z,11.58
2017-05-22T02:10:13.042Z,12.94
2017-05-22T02:12:42.342Z,14.58
2017-05-22T02:15:11.299Z,16.00
2017-05-22T02:17:40.251Z,12.98
2017-05-22T02:20:09.648Z,15.06
2017-05-22T02:22:38.599Z,14.30
2017-05-22T02:25:07.557Z,12.22
2017-05-22T02:27:36.092Z,11.92
2017-05-22T02:30:05.062Z,13.62
2017-05-22T02:32:33.263Z,13.68
2017-05-22T02:35:02.715Z,15.08
2017-05-22T02:37:31.673Z,13.04
2017-05-22T02:40:00.655Z,12.00
2017-05-22T02:42:30.102Z,13.58
2017-05-22T02:44:59.066Z,10.42
2017-05-22T02:47:28.022Z,15.80
2017-05-22T02:49:57.463Z,11.22
2017-05-22T02:52:26.437Z,13.38
2017-05-22T02:54:55.395Z,11.88
2017-05-22T02:57:24.686Z,9.90
2017-05-22T02:59:53.710Z,12.18
2017-05-22T03:02:22.668Z,13.88
2017-05-22T03:04:52.068Z,11.28
2017-05-22T03:07:21.086Z,10.88
2017-05-22T03:09:50.045Z,12.20
2017-05-22T03:12:19.444Z,13.10
2017-05-22T03:14:48.409Z,25.14
2017-05-22T03:17:17.331Z,13.10
2017-05-22T03:19:46.826Z,14.88
2017-05-22T03:22:15.777Z,11.56
2017-05-22T03:24:44.747Z,13.34
2017-05-22T03:27:14.057Z,12.54
2017-05-22T03:29:43.045Z,14.56
2017-05-22T03:32:12.057Z,16.08
2017-05-22T03:34:41.386Z,13.66
2017-05-22T03:37:10.335Z,16.22
2017-05-22T03:39:39.346Z,13.70
2017-05-22T03:42:08.633Z,13.60
2017-05-22T03:44:37.603Z,15.00
2017-05-22T03:47:06.564Z,14.06
2017-05-22T03:49:35.974Z,17.76
2017-05-22T03:52:04.920Z,13.94
2017-05-22T03:54:33.860Z,14.24
2017-05-22T03:57:03.255Z,14.14
2017-05-22T03:59:32.256Z,15.62
2017-05-22T04:02:01.207Z,13.68
2017-05-22T04:04:30.569Z,14.00
2017-05-22T04:06:59.710Z,18.20
2017-05-22T04:09:28.666Z,14.16
2017-05-22T04:11:58.131Z,12.18
2017-05-22T04:14:27.141Z,13.22
2017-05-22T04:16:56.204Z,14.08
2017-05-22T04:19:25.623Z,12.84
2017-05-22T04:21:54.580Z,13.56
2017-05-22T04:24:23.550Z,14.88
2017-05-22T04:26:52.926Z,12.68
2017-05-22T04:29:21.933Z,12.44
2017-05-22T04:31:50.871Z,11.56
2017-05-22T04:34:20.189Z,11.88
2017-05-22T04:36:49.179Z,14.46
2017-05-22T04:39:18.155Z,21.28
2017-05-22T04:41:47.553Z,11.92
2017-05-22T04:44:16.519Z,11.66
2017-05-22T04:46:45.469Z,11.50
2017-05-22T04:49:14.845Z,10.70
2017-05-22T04:51:43.801Z,11.04
2017-05-22T04:54:12.796Z,12.82
2017-05-22T04:56:42.136Z,13.44
2017-05-22T04:59:11.107Z,12.30
2017-05-22T05:01:40.053Z,12.16
2017-05-22T05:04:09.419Z,9.68
2017-05-22T05:06:38.371Z,11.62
2017-05-22T05:09:07.331Z,11.06
2017-05-22T05:11:36.622Z,20.50
2017-05-22T05:14:05.706Z,11.08
2017-05-22T05:16:34.667Z,9.82
2017-05-22T05:19:03.983Z,10.08
2017-05-22T05:21:32.987Z,10.22
2017-05-22T05:24:02.064Z,9.32
2017-05-22T05:26:31.506Z,9.48
2017-05-22T05:29:00.461Z,8.38
2017-05-22T05:31:29.427Z,8.38
2017-05-22T05:33:58.865Z,7.76
2017-05-22T05:36:27.822Z,6.66
2017-05-22T05:38:56.769Z,9.82
2017-05-22T05:41:26.150Z,13.78
2017-05-22T05:43:55.113Z,10.50
2017-05-22T05:46:24.193Z,10.78
2017-05-22T05:48:53.508Z,7.82
2017-05-22T05:51:22.447Z,6.48
2017-05-22T05:53:51.462Z,7.48
2017-05-22T05:56:20.106Z,8.18
2017-05-22T05:58:49.084Z,12.98
2017-05-22T06:01:18.035Z,7.18
2017-05-22T06:03:47.377Z,7.84
2017-05-22T06:06:16.394Z,7.10
2017-05-22T06:08:45.349Z,6.38
2017-05-22T06:11:14.749Z,9.92
2017-05-22T06:13:43.686Z,5.88
2017-05-22T06:16:13.042Z,9.94
2017-05-22T06:18:42.451Z,10.10
2017-05-22T06:21:11.419Z,9.98
2017-05-22T06:23:40.379Z,6.66
2017-05-22T06:26:09.843Z,7.72
2017-05-22T06:28:38.812Z,6.00
2017-05-22T06:31:08.331Z,6.56
2017-05-22T06:33:37.756Z,6.30
2017-05-22T06:36:06.718Z,9.82
2017-05-22T06:38:35.674Z,6.80
2017-05-22T06:41:04.975Z,10.78
2017-05-22T06:43:34.017Z,5.76
2017-05-22T06:46:03.035Z,6.24
2017-05-22T06:48:32.423Z,7.12
2017-05-22T06:51:01.415Z,7.62
2017-05-22T06:53:30.384Z,7.30
2017-05-22T06:55:59.872Z,6.44
2017-05-22T06:58:28.823Z,6.52
2017-05-22T07:00:57.788Z,8.82
2017-05-22T07:03:27.101Z,7.60
2017-05-22T07:05:56.099Z,8.36
2017-05-22T07:08:25.135Z,7.06
2017-05-22T07:10:54.776Z,6.86
2017-05-22T07:13:23.774Z,7.48
2017-05-22T07:15:52.730Z,6.46
2017-05-22T07:18:22.092Z,9.14
2017-05-22T07:20:51.042Z,7.88
2017-05-22T07:23:20.007Z,6.22
2017-05-22T07:25:49.658Z,6.16
2017-05-22T07:28:18.637Z,7.60
2017-05-22T07:30:47.640Z,6.38
2017-05-22T07:33:16.970Z,7.00
2017-05-22T07:35:46.038Z,6.22
2017-05-22T07:38:15.083Z,5.52
2017-05-22T07:40:44.380Z,6.44
2017-05-22T07:43:13.349Z,5.76
2017-05-22T07:45:42.335Z,7.00
2017-05-22T07:48:11.715Z,10.98
2017-05-22T07:50:40.674Z,6.82
2017-05-22T07:53:09.649Z,9.78
2017-05-22T07:55:39.011Z,6.26
2017-05-22T07:58:08.111Z,6.14
2017-05-22T08:00:37.086Z,5.98
2017-05-22T08:03:06.467Z,6.86
2017-05-22T08:05:35.443Z,5.34
2017-05-22T08:08:04.440Z,5.52
2017-05-22T08:10:33.961Z,6.02
2017-05-22T08:13:02.951Z,6.46
2017-05-22T08:15:32.127Z,5.72
2017-05-22T08:18:01.558Z,10.08
2017-05-22T08:20:30.521Z,4.72
2017-05-22T08:22:59.498Z,4.70
2017-05-22T08:25:28.898Z,4.60
2017-05-22T08:27:57.860Z,3.76
2017-05-22T08:30:26.831Z,3.54
2017-05-22T08:32:56.388Z,5.12
2017-05-22T08:35:25.357Z,8.32
2017-05-22T08:37:54.345Z,4.20
2017-05-22T08:40:23.832Z,5.86
2017-05-22T08:42:52.807Z,4.78
2017-05-22T08:45:21.842Z,3.62
2017-05-22T08:47:51.223Z,3.46
2017-05-22T08:50:20.221Z,4.12
2017-05-22T08:52:49.220Z,3.62
2017-05-22T08:55:18.677Z,3.24
2017-05-22T08:57:47.646Z,6.34
2017-05-22T09:00:16.611Z,3.62
2017-05-22T09:02:45.947Z,11.50
2017-05-22T09:05:14.964Z,6.60
2017-05-22T09:07:43.924Z,3.02
2017-05-22T09:10:13.335Z,5.20
2017-05-22T09:12:42.314Z,2.90
2017-05-22T09:15:11.288Z,4.68
2017-05-22T09:17:40.773Z,3.10
2017-05-22T09:20:09.815Z,2.24
2017-05-22T09:22:38.780Z,2.92
2017-05-22T09:25:08.225Z,3.06
2017-05-22T09:27:37.225Z,2.44
2017-05-22T09:30:06.243Z,3.42
2017-05-22T09:32:35.716Z,2.72
2017-05-22T09:35:04.693Z,4.32
2017-05-22T09:37:33.650Z,3.60
2017-05-22T09:40:02.966Z,2.80
2017-05-22T09:42:31.901Z,2.30
2017-05-22T09:45:00.863Z,3.16
2017-05-22T09:47:30.405Z,4.70
2017-05-22T09:49:59.390Z,3.06
2017-05-22T09:52:28.355Z,2.16
2017-05-22T09:54:57.910Z,1.66
2017-05-22T09:57:26.897Z,2.54
2017-05-22T09:59:55.836Z,1.42
2017-05-22T10:02:25.240Z,3.00
2017-05-22T10:04:54.195Z,1.46
2017-05-22T10:07:23.170Z,2.98
2017-05-22T10:09:52.705Z,1.74
2017-05-22T10:12:21.676Z,1.54
2017-05-22T10:14:50.650Z,5.18
2017-05-22T10:17:20.020Z,1.58
2017-05-22T10:19:49.049Z,1.18
2017-05-22T10:22:18.046Z,3.72
2017-05-22T10:24:47.504Z,2.80
2017-05-22T10:27:16.528Z,2.20
2017-05-22T10:29:45.499Z,3.12
2017-05-22T10:32:14.887Z,2.40
2017-05-22T10:34:43.913Z,2.14
2017-05-22T10:37:12.964Z,3.44
2017-05-22T10:39:42.406Z,2.42
2017-05-22T10:42:11.366Z,2.38
2017-05-22T10:44:40.545Z,4.72
2017-05-22T10:47:09.878Z,2.72
2017-05-22T10:49:38.829Z,2.08
2017-05-22T10:52:07.862Z,3.44
2017-05-22T10:54:37.261Z,3.70
2017-05-22T10:57:06.225Z,5.70
2017-05-22T10:59:35.176Z,4.84
2017-05-22T11:02:04.501Z,5.04
2017-05-22T11:04:33.470Z,5.08
2017-05-22T11:07:02.488Z,3.02
2017-05-22T11:09:31.856Z,1.96
2017-05-22T11:12:00.889Z,2.42
2017-05-22T11:14:29.846Z,3.08
2017-05-22T11:16:59.201Z,2.22
2017-05-22T11:19:28.161Z,4.50
2017-05-22T11:21:57.139Z,2.80
2017-05-22T11:24:26.495Z,5.40
2017-05-22T11:26:56.379Z,3.20
2017-05-22T11:29:25.374Z,3.40
2017-05-22T11:31:54.705Z,2.68
2017-05-22T11:34:23.712Z,8.04
2017-05-22T11:36:52.713Z,2.82
2017-05-22T11:39:22.100Z,4.18
2017-05-22T11:41:51.061Z,2.24
2017-05-22T11:44:20.020Z,2.32
2017-05-22T11:46:49.364Z,2.32
2017-05-22T11:49:18.320Z,2.44
2017-05-22T11:51:47.290Z,2.30
2017-05-22T11:54:16.700Z,2.76
2017-05-22T11:56:45.691Z,4.22
2017-05-22T11:59:14.670Z,4.66
2017-05-22T12:01:44.006Z,2.56
2017-05-22T12:04:12.968Z,2.74
2017-05-22T12:06:41.918Z,2.54
2017-05-22T12:09:11.338Z,3.24
2017-05-22T12:11:40.344Z,1.92
2017-05-22T12:14:09.316Z,3.94
2017-05-22T12:16:38.626Z,1.74
2017-05-22T12:19:07.579Z,1.82
2017-05-22T12:21:36.538Z,1.70
2017-05-22T12:24:06.014Z,1.96
2017-05-22T12:26:34.977Z,3.30
2017-05-22T12:29:03.966Z,4.60
2017-05-22T12:31:33.378Z,3.42
2017-05-22T12:34:02.360Z,2.12
2017-05-22T12:36:31.336Z,2.68
2017-05-22T12:39:00.650Z,5.26
2017-05-22T12:41:29.906Z,1.64
2017-05-22T12:43:58.884Z,1.80
2017-05-22T12:46:28.263Z,2.50
2017-05-22T12:48:57.253Z,2.10
2017-05-22T12:51:26.254Z,2.60
2017-05-22T12:53:55.632Z,6.08
2017-05-22T12:56:24.646Z,3.50
2017-05-22T12:58:53.599Z,3.10
2017-05-22T13:01:23.032Z,2.86
2017-05-22T13:03:52.023Z,1.72
2017-05-22T13:06:20.991Z,2.48
2017-05-22T13:08:50.416Z,1.82
2017-05-22T13:11:18.634Z,2.62
2017-05-22T13:13:47.603Z,1.80
2017-05-22T13:16:16.980Z,1.40
2017-05-22T13:18:46.052Z,4.22
2017-05-22T13:21:15.039Z,2.34
2017-05-22T13:23:44.573Z,12.36
2017-05-22T13:26:13.538Z,4.06
2017-05-22T13:28:42.510Z,3.96
2017-05-22T13:31:11.864Z,1.98
2017-05-22T13:33:40.863Z,2.80
2017-05-22T13:36:09.889Z,2.72
2017-05-22T13:38:39.204Z,2.22
2017-05-22T13:41:08.173Z,3.38
2017-05-22T13:43:37.142Z,3.28
2017-05-22T13:46:06.518Z,2.32
2017-05-22T13:48:35.502Z,3.26
2017-05-22T13:51:04.456Z,3.42
2017-05-22T13:53:33.787Z,2.92
2017-05-22T13:56:02.759Z,3.60
2017-05-22T13:58:31.837Z,2.10
2017-05-22T14:01:01.184Z,1.76
2017-05-22T14:03:30.282Z,9.18
2017-05-22T14:05:59.246Z,3.20
2017-05-22T14:08:28.598Z,4.18
2017-05-22T14:10:57.643Z,2.02
2017-05-22T14:13:26.630Z,1.88
2017-05-22T14:15:56.098Z,3.96
2017-05-22T14:18:25.104Z,2.04
2017-05-22T14:20:54.090Z,2.26
2017-05-22T14:23:23.445Z,4.08
2017-05-22T14:25:52.418Z,1.80
2017-05-22T14:28:21.380Z,2.40
2017-05-22T14:30:50.750Z,3.56
2017-05-22T14:33:19.724Z,3.00
2017-05-22T14:35:48.715Z,2.74
2017-05-22T14:38:18.107Z,4.42
2017-05-22T14:40:47.104Z,2.78
2017-05-22T14:43:16.056Z,3.92
2017-05-22T14:45:46.206Z,2.48
2017-05-22T14:48:15.169Z,2.60
2017-05-22T14:50:44.132Z,1.72
2017-05-22T14:53:13.495Z,1.76
2017-05-22T14:55:42.490Z,3.14
2017-05-22T14:58:11.469Z,2.02
2017-05-22T15:00:40.886Z,2.14
2017-05-22T15:03:09.849Z,3.92
2017-05-22T15:05:38.851Z,3.16
2017-05-22T15:08:08.656Z,2.80
2017-05-22T15:10:37.719Z,3.28
2017-05-22T15:13:06.696Z,2.62
2017-05-22T15:15:36.071Z,1.62
2017-05-22T15:18:05.062Z,10.18
2017-05-22T15:20:34.239Z,2.40
2017-05-22T15:23:03.735Z,2.30
2017-05-22T15:25:32.718Z,2.02
2017-05-22T15:28:01.711Z,4.12
2017-05-22T15:30:31.099Z,4.74
2017-05-22T15:33:00.077Z,2.36
2017-05-22T15:35:29.035Z,6.32
2017-05-22T15:37:58.508Z,2.76
2017-05-22T15:40:27.470Z,1.60
2017-05-22T15:42:56.462Z,3.12
2017-05-22T15:45:25.092Z,2.94
2017-05-22T15:47:54.056Z,1.70
2017-05-22T15:50:23.046Z,2.06
2017-05-22T15:52:52.533Z,3.30
2017-05-22T15:55:21.638Z,2.38
2017-05-22T15:57:50.618Z,2.20
2017-05-22T16:00:20.078Z,3.64
2017-05-22T16:02:49.055Z,1.50
2017-05-22T16:05:18.035Z,2.36
2017-05-22T16:07:47.483Z,1.92
2017-05-22T16:10:16.442Z,1.52
2017-05-22T16:12:45.407Z,4.26
2017-05-22T16:15:14.713Z,5.44
2017-05-22T16:17:43.692Z,2.96
2017-05-22T16:20:12.676Z,7.58
2017-05-22T16:22:41.992Z,1.66
2017-05-22T16:25:11.059Z,6.44
2017-05-22T16:27:40.023Z,1.80
2017-05-22T16:30:09.519Z,5.58
2017-05-22T16:32:38.511Z,2.08
2017-05-22T16:35:07.469Z,3.72
2017-05-22T16:37:36.904Z,1.58
2017-05-22T16:40:05.883Z,2.36
2017-05-22T16:42:34.876Z,4.38
2017-05-22T16:45:04.320Z,3.82
2017-05-22T16:47:33.310Z,2.56
2017-05-22T16:50:02.351Z,1.70
2017-05-22T16:52:31.775Z,3.04
2017-05-22T16:55:00.802Z,2.28
2017-05-22T16:57:29.772Z,2.40
2017-05-22T16:59:59.096Z,3.18
2017-05-22T17:02:28.072Z,2.38
2017-05-22T17:04:57.121Z,1.60
2017-05-22T17:07:26.539Z,3.46
2017-05-22T17:09:55.660Z,7.20
2017-05-22T17:12:23.865Z,2.06
2017-05-22T17:14:53.183Z,9.30
2017-05-22T17:17:22.174Z,1.64
2017-05-22T17:19:51.180Z,9.08
2017-05-22T17:22:20.599Z,2.06
2017-05-22T17:24:49.629Z,3.66
2017-05-22T17:27:18.589Z,2.22
2017-05-22T17:29:48.022Z,2.52
2017-05-22T17:32:16.977Z,2.48
2017-05-22T17:34:46.391Z,4.38
2017-05-22T17:37:15.889Z,4.06
2017-05-22T17:39:44.857Z,2.50
2017-05-22T17:42:13.850Z,3.08
2017-05-22T17:44:43.337Z,2.26
2017-05-22T17:47:12.462Z,1.98
2017-05-22T17:49:41.428Z,2.06
2017-05-22T17:52:10.875Z,12.58
2017-05-22T17:54:40.122Z,3.04
2017-05-22T17:57:09.106Z,2.16
2017-05-22T17:59:38.504Z,2.92
2017-05-22T18:02:07.492Z,6.64
2017-05-22T18:04:36.493Z,1.86
2017-05-22T18:07:05.828Z,2.44
2017-05-22T18:09:34.811Z,5.30
2017-05-22T18:12:03.816Z,2.94
2017-05-22T18:14:33.204Z,4.24
2017-05-22T18:17:02.191Z,4.20
2017-05-22T18:19:31.196Z,5.98
2017-05-22T18:22:00.595Z,2.48
2017-05-22T18:24:29.588Z,6.30
2017-05-22T18:26:58.583Z,4.54
2017-05-22T18:29:27.912Z,2.42
2017-05-22T18:31:56.910Z,4.32
2017-05-22T18:34:25.916Z,2.92
2017-05-22T18:36:55.323Z,3.62
2017-05-22T18:39:24.658Z,3.22
2017-05-22T18:41:53.638Z,2.50
2017-05-22T18:44:23.127Z,3.68
2017-05-22T18:46:52.106Z,2.48
2017-05-22T18:49:21.128Z,2.70
2017-05-22T18:51:50.568Z,2.32
2017-05-22T18:54:19.653Z,2.42
2017-05-22T18:56:48.663Z,2.84
2017-05-22T18:59:18.054Z,4.72
2017-05-22T19:01:47.113Z,2.96
2017-05-22T19:04:16.100Z,3.00
2017-05-22T19:06:45.571Z,18.38
2017-05-22T19:09:14.555Z,4.30
2017-05-22T19:11:43.554Z,3.02
2017-05-22T19:14:12.978Z,4.10
2017-05-22T19:16:41.952Z,6.60
2017-05-22T19:19:10.941Z,5.46
2017-05-22T19:21:40.441Z,7.54
2017-05-22T19:24:09.364Z,3.00
2017-05-22T19:26:38.378Z,3.36
2017-05-22T19:29:07.743Z,2.52
2017-05-22T19:31:36.702Z,5.82
2017-05-22T19:34:05.668Z,4.84
2017-05-22T19:36:35.072Z,3.18
2017-05-22T19:39:04.100Z,3.68
2017-05-22T19:41:33.106Z,4.58
2017-05-22T19:44:02.438Z,4.12
2017-05-22T19:46:31.407Z,4.32
2017-05-22T19:49:00.405Z,3.46
2017-05-22T19:51:29.779Z,5.06
2017-05-22T19:53:58.832Z,5.98
2017-05-22T19:56:27.828Z,4.00
2017-05-22T19:58:57.192Z,11.74
2017-05-22T20:01:26.141Z,4.06
2017-05-22T20:03:55.124Z,7.66
2017-05-22T20:06:23.711Z,5.80
2017-05-22T20:08:52.697Z,4.68
2017-05-22T20:11:21.665Z,8.70
2017-05-22T20:13:51.087Z,5.56
2017-05-22T20:16:20.062Z,5.54
2017-05-22T20:18:48.247Z,5.68
2017-05-22T20:21:17.656Z,4.72
2017-05-22T20:23:46.713Z,6.90
2017-05-22T20:26:15.741Z,4.12
2017-05-22T20:28:45.019Z,5.20
2017-05-22T20:31:13.990Z,7.40
2017-05-22T20:33:42.959Z,7.08
2017-05-22T20:36:12.322Z,8.48
2017-05-22T20:38:41.278Z,4.58
2017-05-22T20:41:10.275Z,6.98
2017-05-22T20:43:39.588Z,5.68
2017-05-22T20:46:08.746Z,5.66
2017-05-22T20:48:37.738Z,7.44
2017-05-22T20:51:07.127Z,7.54
2017-05-22T20:53:36.132Z,7.30
2017-05-22T20:56:04.362Z,4.94
2017-05-22T20:58:33.774Z,5.82
2017-05-22T21:01:02.757Z,5.52
2017-05-22T21:03:31.723Z,9.24
2017-05-22T21:06:01.162Z,4.98
2017-05-22T21:08:30.120Z,4.22
2017-05-22T21:10:59.107Z,5.22
2017-05-22T21:13:28.462Z,7.20
2017-05-22T21:15:57.418Z,8.22
2017-05-22T21:18:26.518Z,6.18
2017-05-22T21:20:55.828Z,6.36
2017-05-22T21:23:24.810Z,4.92
2017-05-22T21:25:53.836Z,5.36
2017-05-22T21:28:23.204Z,4.64
2017-05-22T21:30:52.221Z,10.38
2017-05-22T21:33:21.218Z,6.36
2017-05-22T21:35:50.583Z,5.82
2017-05-22T21:38:19.652Z,5.92
2017-05-22T21:40:51.980Z,5.56
2017-05-22T21:43:22.557Z,7.66
2017-05-22T21:45:51.527Z,5.66
2017-05-22T21:48:20.878Z,5.16
2017-05-22T21:50:49.886Z,5.74
2017-05-22T21:53:18.862Z,6.88
2017-05-22T21:55:48.275Z,8.44
2017-05-22T21:58:17.281Z,5.42
2017-05-22T22:00:46.263Z,10.04
2017-05-22T22:03:15.607Z,5.42
2017-05-22T22:05:44.609Z,5.62
2017-05-22T22:08:13.568Z,4.36
2017-05-22T22:10:42.951Z,4.82
2017-05-22T22:13:11.928Z,5.32
2017-05-22T22:15:40.894Z,5.34
2017-05-22T22:18:10.356Z,5.20
2017-05-22T22:20:39.376Z,7.28
2017-05-22T22:23:08.325Z,5.00
2017-05-22T22:25:37.706Z,6.16
2017-05-22T22:28:06.675Z,5.82
2017-05-22T22:30:35.632Z,8.84
2017-05-22T22:33:05.093Z,6.70
2017-05-22T22:35:34.058Z,5.24
2017-05-22T22:38:03.040Z,6.22
2017-05-22T22:40:32.364Z,5.32
2017-05-22T22:43:01.364Z,5.02
2017-05-22T22:45:30.339Z,12.76
2017-05-22T22:47:59.940Z,5.50
2017-05-22T22:50:28.925Z,5.62
2017-05-22T22:52:57.937Z,5.62
2017-05-22T22:55:27.345Z,7.00
2017-05-22T22:57:55.539Z,5.38
2017-05-22T23:00:24.665Z,5.02
2017-05-22T23:02:54.019Z,6.92
2017-05-22T23:05:23.000Z,5.62
2017-05-22T23:07:51.979Z,6.22
2017-05-22T23:10:21.376Z,5.96
2017-05-22T23:12:50.345Z,4.68
2017-05-22T23:15:19.302Z,6.02
2017-05-22T23:17:48.803Z,6.12
2017-05-22T23:20:17.785Z,5.84
2017-05-22T23:22:46.734Z,6.14
2017-05-22T23:25:16.031Z,7.38
2017-05-22T23:27:45.006Z,6.52
2017-05-22T23:30:13.949Z,5.94
2017-05-22T23:32:43.466Z,5.80
2017-05-22T23:35:12.452Z,6.36
2017-05-22T23:37:41.413Z,6.12
2017-05-22T23:40:10.706Z,7.10
2017-05-22T23:42:39.655Z,6.46
2017-05-22T23:45:08.609Z,6.38
2017-05-22T23:47:37.938Z,7.10
2017-05-22T23:50:06.905Z,7.24
2017-05-22T23:52:35.906Z,6.62
2017-05-22T23:55:05.332Z,8.60
2017-05-22T23:57:34.297Z,6.76
